»·PEaware :: N737AZ L88-KSBP

N737AZ :: L88-KSBP

FLIGHT INFORMATION

Flight Status: Arrived
Operator: Privately registered:
United States
More flights under this callsign
Pilot: Ronald A. (20436)
Aircraft: CESSNA 172 SKYHAWK
(C172)
More flights by this aircraft type
Origin: L88 New Cuyama
United States
Destination: KSBP San Luis Co Regl
United States
More flights between these airports :: More routes between these airports
Route: DIRECT
File this flight plan on PilotEdge
Remarks:
Altitude:
(Current/Filed)
6,500ft
Speed:
(Current/Filed)
110kts
Departed: 06-Oct-18 01:54 PM
Arrived: 06-Oct-18 02:34 PM
Distance/Time
Traveled:
50nm/0:40
Distance/Time
To Go:
Arrived

Flight Plot

Page will automatically refresh every two minutes.


Map Options




Map Legend


Flown Route
Filed Route
Departure Airport
Arrival Airport
Navaid (VOR, NDB)
Fix

Horizontal Profiles

Position Reports

Time Latitude Longitude Heading Altitude Ground
Speed
06-Oct-18 12:43 35.237658 -120.637655 266 215ft 0kts
06-Oct-18 12:44 35.237658 -120.637655 266 215ft 0kts
06-Oct-18 12:45 35.237658 -120.637655 266 215ft 0kts
06-Oct-18 12:46 35.237658 -120.637655 266 215ft 0kts
06-Oct-18 12:47 35.237658 -120.637655 266 215ft 0kts
06-Oct-18 12:48 35.237658 -120.637655 266 215ft 0kts
06-Oct-18 12:49 35.237658 -120.637655 266 215ft 0kts
06-Oct-18 12:50 35.237658 -120.637655 266 215ft 0kts
06-Oct-18 12:51 35.237658 -120.637655 266 215ft 0kts
06-Oct-18 12:52 35.237658 -120.637655 266 215ft 0kts
06-Oct-18 12:53 35.237658 -120.637655 266 215ft 0kts
06-Oct-18 12:54 35.237658 -120.637655 266 215ft 0kts
06-Oct-18 12:55 35.237658 -120.637655 266 215ft 0kts
06-Oct-18 12:56 35.237658 -120.637655 266 215ft 0kts
06-Oct-18 12:57 35.237658 -120.637655 266 215ft 0kts
06-Oct-18 12:58 35.237658 -120.637655 266 215ft 0kts
06-Oct-18 12:59 35.237658 -120.637655 266 215ft 0kts
06-Oct-18 13:00 35.237658 -120.637655 266 215ft 0kts
06-Oct-18 13:01 35.237658 -120.637655 266 215ft 0kts
06-Oct-18 13:02 35.237658 -120.637655 266 215ft 0kts
06-Oct-18 13:03 35.237658 -120.637655 266 215ft 0kts
06-Oct-18 13:04 35.237658 -120.637655 266 215ft 0kts
06-Oct-18 13:05 35.237658 -120.637655 266 215ft 0kts
06-Oct-18 13:06 35.237658 -120.637655 266 215ft 0kts
06-Oct-18 13:07 35.237658 -120.637655 266 215ft 0kts
06-Oct-18 13:08 35.237658 -120.637655 266 215ft 0kts
06-Oct-18 13:09 35.237658 -120.637655 266 215ft 0kts
06-Oct-18 13:10 35.237658 -120.637655 266 215ft 0kts
06-Oct-18 13:11 35.237658 -120.637655 266 215ft 0kts
06-Oct-18 13:12 35.237658 -120.637655 266 215ft 0kts
06-Oct-18 13:13 35.237658 -120.637655 266 215ft 0kts
06-Oct-18 13:14 35.237658 -120.637655 266 215ft 0kts
06-Oct-18 13:15 35.237658 -120.637655 266 215ft 0kts
06-Oct-18 13:16 35.237658 -120.637655 266 215ft 0kts
06-Oct-18 13:17 35.237658 -120.637655 266 215ft 0kts
06-Oct-18 13:18 35.237658 -120.637655 266 215ft 0kts
06-Oct-18 13:19 35.237658 -120.637655 266 215ft 0kts
06-Oct-18 13:20 35.237658 -120.637655 266 215ft 0kts
06-Oct-18 13:21 35.237658 -120.637655 266 215ft 0kts
06-Oct-18 13:22 35.237658 -120.637655 266 215ft 0kts
06-Oct-18 13:23 35.237658 -120.637655 266 215ft 0kts
06-Oct-18 13:24 35.237658 -120.637655 266 215ft 0kts
06-Oct-18 13:25 35.237658 -120.637655 266 215ft 0kts
06-Oct-18 13:26 35.237658 -120.637655 266 215ft 0kts
06-Oct-18 13:27 35.237658 -120.637655 266 215ft 0kts
06-Oct-18 13:28 35.237658 -120.637655 266 215ft 0kts
06-Oct-18 13:29 35.237658 -120.637655 266 215ft 0kts
06-Oct-18 13:30 35.237658 -120.637655 266 215ft 0kts
06-Oct-18 13:31 35.237658 -120.637655 266 215ft 0kts
06-Oct-18 13:32 35.237658 -120.637655 266 215ft 0kts
06-Oct-18 13:33 35.237658 -120.637655 266 215ft 0kts
06-Oct-18 13:34 35.237658 -120.637655 266 215ft 0kts
06-Oct-18 13:35 35.237658 -120.637655 266 215ft 0kts
06-Oct-18 13:36 35.237658 -120.637655 266 215ft 0kts
06-Oct-18 13:37 35.237658 -120.637655 266 215ft 0kts
06-Oct-18 13:38 35.237658 -120.637655 266 215ft 0kts
06-Oct-18 13:39 35.237658 -120.637655 266 215ft 0kts
06-Oct-18 13:40 35.237658 -120.637655 266 215ft 0kts
06-Oct-18 13:41 35.237658 -120.637655 266 215ft 0kts
06-Oct-18 13:42 35.237658 -120.637655 266 215ft 0kts
06-Oct-18 13:43 34.942855 -119.690286 204 2207ft 0kts
06-Oct-18 13:44 34.942855 -119.690286 204 2207ft 0kts
06-Oct-18 13:45 34.942855 -119.690286 204 2207ft 0kts
06-Oct-18 13:46 34.942855 -119.690286 204 2207ft 0kts
06-Oct-18 13:47 34.942855 -119.690286 204 2207ft 0kts
06-Oct-18 13:48 34.942855 -119.690286 204 2207ft 0kts
06-Oct-18 13:49 34.942855 -119.690286 204 2207ft 0kts
06-Oct-18 13:50 34.942855 -119.690286 204 2207ft 0kts
06-Oct-18 13:51 34.942797 -119.690362 245 2207ft 3kts
06-Oct-18 13:52 34.942810 -119.691114 219 2207ft 0kts
06-Oct-18 13:53 34.942762 -119.691163 218 2207ft 0kts
06-Oct-18 13:54 34.942762 -119.691163 218 2207ft 0kts
06-Oct-18 13:55 34.942739 -119.691184 215 2207ft 3kts
06-Oct-18 13:56 34.937364 -119.677410 113 2491ft 75kts
06-Oct-18 13:57 34.924573 -119.665687 235 3367ft 67kts
06-Oct-18 13:58 34.932950 -119.687845 299 4329ft 76kts
06-Oct-18 13:59 34.943017 -119.709639 289 5149ft 74kts
06-Oct-18 14:00 34.951423 -119.731838 286 5944ft 71kts
06-Oct-18 14:01 34.959726 -119.755750 283 6470ft 93kts
06-Oct-18 14:02 34.966084 -119.789071 287 6418ft 89kts
06-Oct-18 14:03 34.974020 -119.814618 285 6525ft 84kts
06-Oct-18 14:04 34.981954 -119.841943 287 6566ft 85kts
06-Oct-18 14:05 34.988586 -119.869991 281 6538ft 86kts
06-Oct-18 14:06 34.995055 -119.897985 287 6513ft 86kts
06-Oct-18 14:07 35.003430 -119.925443 290 6488ft 86kts
06-Oct-18 14:08 35.011768 -119.952871 288 6487ft 86kts
06-Oct-18 14:09 35.018634 -119.980954 285 6511ft 86kts
06-Oct-18 14:10 35.026554 -120.008654 287 6536ft 86kts
06-Oct-18 14:11 35.035367 -120.035652 298 6565ft 85kts
06-Oct-18 14:12 35.046292 -120.061368 296 6598ft 84kts
06-Oct-18 14:13 35.055710 -120.087514 290 6635ft 83kts
06-Oct-18 14:14 35.062767 -120.114521 288 6666ft 83kts
06-Oct-18 14:15 35.069608 -120.141324 289 6684ft 83kts
06-Oct-18 14:16 35.075430 -120.168513 289 6715ft 82kts
06-Oct-18 14:17 35.081200 -120.195490 289 6648ft 81kts
06-Oct-18 14:18 35.086782 -120.222494 294 6549ft 80kts
06-Oct-18 14:19 35.094086 -120.248229 297 6452ft 79kts
06-Oct-18 14:20 35.100943 -120.274646 291 6346ft 81kts
06-Oct-18 14:21 35.107235 -120.301255 292 6206ft 82kts
06-Oct-18 14:22 35.114179 -120.327609 295 5979ft 81kts
06-Oct-18 14:23 35.122881 -120.352788 300 5678ft 80kts
06-Oct-18 14:24 35.132183 -120.377664 296 5299ft 80kts
06-Oct-18 14:25 35.140660 -120.402964 293 4892ft 81kts
06-Oct-18 14:26 35.147812 -120.428972 291 4432ft 81kts
06-Oct-18 14:27 35.154536 -120.455219 291 3962ft 80kts
06-Oct-18 14:28 35.161280 -120.481347 294 3506ft 80kts
06-Oct-18 14:29 35.169442 -120.506687 297 3102ft 79kts
06-Oct-18 14:30 35.178812 -120.531316 297 2752ft 79kts
06-Oct-18 14:31 35.174815 -120.559073 304 2758ft 88kts
06-Oct-18 14:32 35.195743 -120.571933 322 2327ft 83kts
06-Oct-18 14:33 35.210187 -120.592197 304 1537ft 80kts
06-Oct-18 14:34 35.221594 -120.613543 305 803ft 66kts
06-Oct-18 14:35 35.231655 -120.631093 306 271ft 56kts
06-Oct-18 14:36 35.235395 -120.636104 27 215ft 0kts
06-Oct-18 14:37 35.235802 -120.636417 304 215ft 7kts
06-Oct-18 14:38 35.237260 -120.637590 17 215ft 6kts
06-Oct-18 14:39 35.237678 -120.637726 272 215ft 0kts
06-Oct-18 14:40 35.237678 -120.637726 272 215ft 0kts
06-Oct-18 14:41 35.237678 -120.637726 272 215ft 0kts
06-Oct-18 14:42 35.237678 -120.637726 272 215ft 0kts
06-Oct-18 14:43 35.237678 -120.637726 272 215ft 0kts
06-Oct-18 14:44 35.237678 -120.637726 272 215ft 0kts
06-Oct-18 14:45 35.237678 -120.637726 272 215ft 0kts
06-Oct-18 14:46 35.237678 -120.637726 272 215ft 0kts
06-Oct-18 14:47 35.237678 -120.637726 272 215ft 0kts
06-Oct-18 14:48 35.237678 -120.637726 272 215ft 0kts
06-Oct-18 14:49 35.237678 -120.637726 272 215ft 0kts
06-Oct-18 14:50 35.237678 -120.637726 272 215ft 0kts
06-Oct-18 14:51 35.237678 -120.637726 272 215ft 0kts

Navigation Log

Ident Type
1. L88 Airport
2. KSBP Airport